Wetterdaten: Woche 08.04.19 - 14.04.19 (KW15)
Datum Zeit Temp. Aussen Temp. o. S. +5cm Feuchte Auss Luftdruck Regen Sonnenschein Regendauer Solar Windben Empfang
08.04.2019 00:00 12,1 C 9,8 C 8,5 C 77 % 1004,9 hPa 0,0 l/m 0,00 h 0,00 h 0 W/m 0,0 km/h (0 Bft) 97,82 %
08.04.2019 01:00 10,8 C 9,5 C 7,7 C 80 % 1005,2 hPa 0,0 l/m 0,00 h 0,00 h 0 W/m 1,2 km/h (1 Bft) 98,74 %
08.04.2019 02:00 10,6 C 9,5 C 7,9 C 84 % 1005,4 hPa 0,0 l/m 0,00 h 0,00 h 0 W/m 2,7 km/h (1 Bft) 96,73 %
08.04.2019 03:00 9,8 C 7,6 C 6,5 C 86 % 1005,5 hPa 0,0 l/m 0,00 h 0,00 h 0 W/m 0,0 km/h (0 Bft) 96,43 %
08.04.2019 04:00 8,7 C 6,7 C 5,7 C 88 % 1005,8 hPa 0,0 l/m 0,00 h 0,00 h 0 W/m 0,0 km/h (0 Bft) 98,36 %
08.04.2019 05:00 7,8 C 6,4 C 5,2 C 90 % 1006,0 hPa 0,0 l/m 0,00 h 0,00 h 0 W/m 0,3 km/h (0 Bft) 97,37 %
08.04.2019 06:00 7,4 C 6,2 C 5,0 C 91 % 1006,5 hPa 0,0 l/m 0,00 h 0,00 h 0 W/m 0,1 km/h (0 Bft) 98,76 %
08.04.2019 07:00 7,7 C 7,3 C 6,7 C 94 % 1006,7 hPa 0,0 l/m 0,00 h 0,00 h 15 W/m 1,3 km/h (1 Bft) 96,02 %
08.04.2019 08:00 8,7 C 8,1 C 7,9 C 96 % 1007,3 hPa 0,0 l/m 0,00 h 0,00 h 46 W/m 2,0 km/h (1 Bft) 97,22 %
08.04.2019 09:00 9,4 C 10,1 C 9,6 C 97 % 1007,6 hPa 0,0 l/m 0,03 h 0,00 h 118 W/m 2,6 km/h (1 Bft) 99,36 %
08.04.2019 10:00 10,3 C 13,5 C 12,5 C 98 % 1007,9 hPa 0,0 l/m 0,37 h 0,00 h 288 W/m 5,1 km/h (1 Bft) 95,03 %
08.04.2019 11:00 13,0 C 19,9 C 15,9 C 93 % 1007,9 hPa 0,0 l/m 1,00 h 0,00 h 541 W/m 8,0 km/h (2 Bft) 97,44 %
08.04.2019 12:00 16,5 C 24,8 C 17,1 C 78 % 1007,7 hPa 0,0 l/m 1,00 h 0,00 h 676 W/m 9,1 km/h (2 Bft) 88,27 %
08.04.2019 13:00 19,4 C 27,4 C 22,4 C 67 % 1007,6 hPa 0,0 l/m 1,00 h 0,00 h 732 W/m 9,1 km/h (2 Bft) 80,69 %
08.04.2019 14:00 20,3 C 24,5 C 24,1 C 62 % 1007,4 hPa 0,0 l/m 0,87 h 0,00 h 592 W/m 8,8 km/h (2 Bft) 99,07 %
08.04.2019 15:00 19,8 C 20,7 C 20,0 C 60 % 1007,2 hPa 0,0 l/m 0,67 h 0,00 h 357 W/m 10,3 km/h (2 Bft) 98,21 %
08.04.2019 16:00 19,5 C 21,1 C 19,8 C 54 % 1007,2 hPa 0,0 l/m 0,70 h 0,00 h 334 W/m 17,0 km/h (3 Bft) 95,91 %
08.04.2019 17:00 19,3 C 20,1 C 18,8 C 53 % 1006,8 hPa 0,0 l/m 0,33 h 0,00 h 206 W/m 9,7 km/h (2 Bft) 96,81 %
08.04.2019 18:00 19,3 C 18,9 C 17,8 C 55 % 1007,0 hPa 0,0 l/m 0,27 h 0,00 h 124 W/m 4,8 km/h (1 Bft) 98,97 %
08.04.2019 19:00 17,2 C 15,4 C 15,1 C 63 % 1007,3 hPa 0,0 l/m 0,00 h 0,00 h 26 W/m 9,4 km/h (2 Bft) 96,37 %
08.04.2019 20:00 15,0 C 13,5 C 13,3 C 71 % 1007,8 hPa 0,0 l/m 0,00 h 0,00 h 5 W/m 8,2 km/h (2 Bft) 96,63 %
08.04.2019 21:00 13,9 C 12,5 C 12,0 C 76 % 1008,3 hPa 0,0 l/m 0,00 h 0,00 h 0 W/m 4,4 km/h (1 Bft) 99,36 %
08.04.2019 22:00 13,0 C 11,8 C 11,5 C 79 % 1008,3 hPa 0,0 l/m 0,00 h 0,00 h 0 W/m 4,7 km/h (1 Bft) 96,94 %
08.04.2019 23:00 12,5 C 11,7 C 11,3 C 81 % 1008,4 hPa 0,0 l/m 0,00 h 0,00 h 0 W/m 4,5 km/h (1 Bft) 95,30 %
09.04.2019 00:00 12,4 C 11,5 C 11,0 C 83 % 1008,3 hPa 0,0 l/m 0,00 h 0,00 h 0 W/m 7,4 km/h (2 Bft) 98,11 %
09.04.2019 01:00 12,0 C 11,1 C 10,6 C 84 % 1008,2 hPa 0,0 l/m 0,00 h 0,00 h 0 W/m 2,9 km/h (1 Bft) 98,72 %
09.04.2019 02:00 11,9 C 11,7 C 10,9 C 83 % 1008,1 hPa 0,0 l/m 0,00 h 0,00 h 0 W/m 5,8 km/h (2 Bft) 96,87 %
09.04.2019 03:00 12,0 C 10,8 C 10,1 C 80 % 1008,1 hPa 0,0 l/m 0,00 h 0,00 h 0 W/m 6,0 km/h (2 Bft) 95,88 %
09.04.2019 04:00 11,1 C 9,6 C 9,0 C 82 % 1008,1 hPa 0,0 l/m 0,00 h 0,00 h 0 W/m 5,2 km/h (1 Bft) 99,08 %
09.04.2019 05:00 10,3 C 9,4 C 8,9 C 84 % 1008,2 hPa 0,0 l/m 0,00 h 0,00 h 0 W/m 6,5 km/h (2 Bft) 97,78 %
09.04.2019 06:00 9,7 C 8,6 C 8,2 C 84 % 1008,4 hPa 0,0 l/m 0,00 h 0,00 h 4 W/m 8,7 km/h (2 Bft) 97,31 %
09.04.2019 07:00 9,0 C 8,3 C 7,9 C 85 % 1008,8 hPa 0,0 l/m 0,00 h 0,00 h 34 W/m 9,5 km/h (2 Bft) 97,58 %
09.04.2019 08:00 8,9 C 9,1 C 8,8 C 86 % 1009,0 hPa 0,0 l/m 0,00 h 0,00 h 104 W/m 13,6 km/h (3 Bft) 96,88 %
09.04.2019 09:00 9,1 C 9,6 C 9,2 C 86 % 1009,1 hPa 0,0 l/m 0,00 h 0,00 h 126 W/m 13,6 km/h (3 Bft) 98,22 %
09.04.2019 10:00 9,3 C 9,2 C 8,7 C 86 % 1009,5 hPa 0,0 l/m 0,00 h 0,00 h 75 W/m 11,0 km/h (2 Bft) 95,83 %
09.04.2019 11:00 9,5 C 10,4 C 9,7 C 85 % 1009,5 hPa 0,0 l/m 0,00 h 0,00 h 137 W/m 11,7 km/h (2 Bft) 97,37 %
09.04.2019 12:00 11,2 C 14,0 C 12,8 C 80 % 1009,3 hPa 0,0 l/m 0,30 h 0,00 h 333 W/m 13,5 km/h (3 Bft) 98,19 %
09.04.2019 13:00 14,3 C 19,1 C 17,5 C 72 % 1009,1 hPa 0,0 l/m 1,00 h 0,00 h 568 W/m 14,6 km/h (3 Bft) 97,00 %
09.04.2019 14:00 16,5 C 20,8 C 19,7 C 65 % 1008,8 hPa 0,0 l/m 0,87 h 0,00 h 567 W/m 16,0 km/h (3 Bft) 99,14 %
09.04.2019 15:00 17,4 C 21,4 C 18,4 C 62 % 1008,4 hPa 0,0 l/m 1,00 h 0,00 h 598 W/m 18,7 km/h (3 Bft) 95,37 %
09.04.2019 16:00 17,1 C 18,7 C 17,5 C 60 % 1008,2 hPa 0,0 l/m 0,93 h 0,00 h 381 W/m 17,4 km/h (3 Bft) 98,61 %
09.04.2019 17:00 16,4 C 17,0 C 16,0 C 62 % 1008,3 hPa 0,0 l/m 1,00 h 0,00 h 264 W/m 16,0 km/h (3 Bft) 98,73 %
09.04.2019 18:00 14,8 C 14,1 C 13,6 C 65 % 1008,5 hPa 0,0 l/m 0,03 h 0,00 h 111 W/m 15,0 km/h (3 Bft) 95,72 %
09.04.2019 19:00 13,4 C 12,5 C 12,1 C 69 % 1008,8 hPa 0,0 l/m 0,00 h 0,00 h 47 W/m 12,7 km/h (3 Bft) 97,79 %
09.04.2019 20:00 12,4 C 11,3 C 10,8 C 71 % 1009,1 hPa 0,0 l/m 0,00 h 0,00 h 8 W/m 14,5 km/h (3 Bft) 97,98 %
09.04.2019 21:00 11,5 C 10,5 C 9,9 C 72 % 1009,6 hPa 0,0 l/m 0,00 h 0,00 h 0 W/m 14,3 km/h (3 Bft) 97,15 %
09.04.2019 22:00 10,9 C 10,0 C 9,4 C 72 % 1009,8 hPa 0,0 l/m 0,00 h 0,00 h 0 W/m 14,1 km/h (3 Bft) 98,73 %
09.04.2019 23:00 10,5 C 9,6 C 9,1 C 70 % 1009,9 hPa 0,0 l/m 0,00 h 0,00 h 0 W/m 14,8 km/h (3 Bft) 95,25 %
10.04.2019 00:00 9,7 C 8,6 C 8,0 C 70 % 1010,3 hPa 0,0 l/m 0,00 h 0,00 h 0 W/m 10,9 km/h (2 Bft) 98,67 %
10.04.2019 01:00 8,9 C 7,9 C 7,3 C 71 % 1010,5 hPa 0,0 l/m 0,00 h 0,00 h 0 W/m 12,0 km/h (2 Bft) 98,80 %
10.04.2019 02:00 8,1 C 7,0 C 6,5 C 72 % 1010,5 hPa 0,0 l/m 0,00 h 0,00 h 0 W/m 12,8 km/h (3 Bft) 95,30 %
10.04.2019 03:00 7,2 C 6,3 C 5,8 C 75 % 1010,6 hPa 0,0 l/m 0,00 h 0,00 h 0 W/m 14,5 km/h (3 Bft) 97,79 %
10.04.2019 04:00 6,6 C 5,7 C 5,2 C 75 % 1010,6 hPa 0,0 l/m 0,00 h 0,00 h 0 W/m 14,7 km/h (3 Bft) 97,72 %
10.04.2019 05:00 5,7 C 4,6 C 4,2 C 77 % 1010,8 hPa 0,0 l/m 0,00 h 0,00 h 0 W/m 13,4 km/h (3 Bft) 97,49 %
10.04.2019 06:00 4,8 C 3,8 C 3,5 C 79 % 1011,3 hPa 0,0 l/m 0,00 h 0,00 h 5 W/m 15,3 km/h (3 Bft) 95,95 %
10.04.2019 07:00 4,2 C 3,5 C 3,1 C 81 % 1011,9 hPa 0,0 l/m 0,00 h 0,00 h 25 W/m 12,6 km/h (3 Bft) 97,64 %
10.04.2019 08:00 4,3 C 4,2 C 3,6 C 80 % 1012,4 hPa 0,0 l/m 0,00 h 0,00 h 49 W/m 14,8 km/h (3 Bft) 97,25 %
10.04.2019 09:00 6,0 C 10,4 C 6,9 C 76 % 1012,7 hPa 0,0 l/m 0,00 h 0,00 h 76 W/m 14,8 km/h (3 Bft) 96,54 %
10.04.2019 10:00 9,1 C 15,1 C 14,3 C 68 % 1013,0 hPa 0,0 l/m 0,97 h 0,00 h 512 W/m 15,5 km/h (3 Bft) 95,42 %
10.04.2019 11:00 11,3 C 18,0 C 14,3 C 63 % 1013,3 hPa 0,0 l/m 1,00 h 0,00 h 680 W/m 17,2 km/h (3 Bft) 97,49 %
10.04.2019 12:00 12,8 C 19,1 C 13,0 C 57 % 1013,2 hPa 0,0 l/m 1,00 h 0,00 h 779 W/m 19,4 km/h (3 Bft) 98,80 %
10.04.2019 13:00 14,0 C 20,6 C 18,2 C 54 % 1013,3 hPa 0,0 l/m 1,00 h 0,00 h 814 W/m 18,0 km/h (3 Bft) 96,02 %
10.04.2019 14:00 14,5 C 20,0 C 21,0 C 52 % 1013,4 hPa 0,0 l/m 1,00 h 0,00 h 765 W/m 20,4 km/h (4 Bft) 99,59 %
10.04.2019 15:00 15,1 C 20,1 C 15,3 C 51 % 1013,4 hPa 0,0 l/m 1,00 h 0,00 h 706 W/m 18,3 km/h (3 Bft) 96,63 %
10.04.2019 16:00 14,8 C 18,0 C 17,0 C 49 % 1013,4 hPa 0,0 l/m 1,00 h 0,00 h 590 W/m 19,6 km/h (3 Bft) 95,84 %
10.04.2019 17:00 14,0 C 15,4 C 14,0 C 49 % 1013,8 hPa 0,0 l/m 1,00 h 0,00 h 433 W/m 18,6 km/h (3 Bft) 99,72 %
10.04.2019 18:00 12,4 C 11,8 C 10,6 C 52 % 1014,2 hPa 0,0 l/m 0,43 h 0,00 h 150 W/m 16,3 km/h (3 Bft) 95,31 %
10.04.2019 19:00 10,7 C 9,7 C 9,2 C 56 % 1014,6 hPa 0,0 l/m 0,00 h 0,00 h 33 W/m 14,5 km/h (3 Bft) 93,32 %
10.04.2019 20:00 9,3 C 8,0 C 7,5 C 59 % 1015,5 hPa 0,0 l/m 0,00 h 0,00 h 9 W/m 12,6 km/h (3 Bft) 93,23 %
10.04.2019 21:00 8,1 C 6,5 C 5,9 C 61 % 1016,2 hPa 0,0 l/m 0,00 h 0,00 h 0 W/m 8,1 km/h (2 Bft) 97,72 %
10.04.2019 22:00 6,9 C 5,6 C 5,0 C 64 % 1016,8 hPa 0,0 l/m 0,00 h 0,00 h 0 W/m 9,1 km/h (2 Bft) 96,44 %
10.04.2019 23:00 6,3 C 5,2 C 4,5 C 65 % 1017,4 hPa 0,0 l/m 0,00 h 0,00 h 0 W/m 8,9 km/h (2 Bft) 97,65 %
11.04.2019 00:00 5,6 C 4,4 C 3,8 C 66 % 1017,7 hPa 0,0 l/m 0,00 h 0,00 h 0 W/m 8,0 km/h (2 Bft) 96,77 %
11.04.2019 01:00 4,7 C 3,2 C 2,6 C 69 % 1017,9 hPa 0,0 l/m 0,00 h 0,00 h 0 W/m 6,2 km/h (2 Bft) 98,72 %
11.04.2019 02:00 3,6 C 2,5 C 2,1 C 73 % 1018,1 hPa 0,0 l/m 0,00 h 0,00 h 0 W/m 7,2 km/h (2 Bft) 98,65 %
11.04.2019 03:00 3,0 C 1,9 C 1,4 C 76 % 1018,3 hPa 0,0 l/m 0,00 h 0,00 h 0 W/m 7,9 km/h (2 Bft) 96,15 %
11.04.2019 04:00 2,3 C 1,2 C 0,9 C 79 % 1018,6 hPa 0,0 l/m 0,00 h 0,00 h 0 W/m 6,1 km/h (2 Bft) 96,87 %
11.04.2019 05:00 1,6 C 0,5 C 0,0 C 80 % 1018,8 hPa 0,0 l/m 0,00 h 0,00 h 0 W/m 4,0 km/h (1 Bft) 97,96 %
11.04.2019 06:00 1,1 C 0,4 C -0,1 C 82 % 1019,3 hPa 0,0 l/m 0,00 h 0,00 h 5 W/m 5,4 km/h (1 Bft) 98,63 %
11.04.2019 07:00 0,9 C 0,6 C 0,0 C 84 % 1019,8 hPa 0,0 l/m 0,00 h 0,00 h 22 W/m 5,3 km/h (1 Bft) 95,55 %
11.04.2019 08:00 2,1 C 2,9 C 2,1 C 84 % 1020,1 hPa 0,0 l/m 0,00 h 0,00 h 44 W/m 10,6 km/h (2 Bft) 98,50 %
11.04.2019 09:00 5,1 C 10,6 C 6,2 C 75 % 1020,4 hPa 0,0 l/m 0,00 h 0,00 h 66 W/m 12,5 km/h (3 Bft) 96,51 %
11.04.2019 10:00 8,8 C 15,5 C 14,9 C 63 % 1020,6 hPa 0,0 l/m 0,93 h 0,00 h 508 W/m 12,6 km/h (3 Bft) 95,99 %
11.04.2019 11:00 11,2 C 17,3 C 14,8 C 55 % 1020,7 hPa 0,0 l/m 0,90 h 0,00 h 644 W/m 13,2 km/h (3 Bft) 95,94 %
11.04.2019 12:00 11,3 C 15,8 C 11,7 C 51 % 1020,6 hPa 0,0 l/m 0,57 h 0,00 h 516 W/m 13,3 km/h (3 Bft) 95,23 %
11.04.2019 13:00 12,7 C 19,3 C 16,7 C 48 % 1020,7 hPa 0,0 l/m 1,00 h 0,00 h 810 W/m 15,6 km/h (3 Bft) 96,73 %
11.04.2019 14:00 13,6 C 19,5 C 20,1 C 46 % 1020,5 hPa 0,0 l/m 1,00 h 0,00 h 818 W/m 16,6 km/h (3 Bft) 97,22 %
11.04.2019 15:00 13,8 C 18,2 C 14,2 C 46 % 1020,2 hPa 0,0 l/m 0,87 h 0,00 h 688 W/m 14,6 km/h (3 Bft) 99,07 %
11.04.2019 16:00 13,1 C 15,8 C 14,7 C 47 % 1019,9 hPa 0,0 l/m 0,90 h 0,00 h 527 W/m 15,6 km/h (3 Bft) 96,01 %
11.04.2019 17:00 12,2 C 12,9 C 11,9 C 48 % 1019,8 hPa 0,0 l/m 0,67 h 0,00 h 329 W/m 13,9 km/h (3 Bft) 97,01 %
11.04.2019 18:00 10,4 C 9,8 C 9,1 C 51 % 1020,1 hPa 0,0 l/m 0,28 h 0,00 h 148 W/m 14,5 km/h (3 Bft) 99,57 %
11.04.2019 19:00 9,0 C 8,0 C 7,5 C 54 % 1020,4 hPa 0,0 l/m 0,03 h 0,00 h 43 W/m 12,4 km/h (3 Bft) 96,99 %
11.04.2019 20:00 7,7 C 6,3 C 6,0 C 57 % 1020,9 hPa 0,0 l/m 0,00 h 0,00 h 8 W/m 8,9 km/h (2 Bft) 95,55 %
11.04.2019 21:00 6,5 C 5,2 C 4,6 C 60 % 1021,4 hPa 0,0 l/m 0,00 h 0,00 h 0 W/m 8,8 km/h (2 Bft) 98,01 %
11.04.2019 22:00 5,5 C 4,3 C 3,8 C 62 % 1021,6 hPa 0,0 l/m 0,00 h 0,00 h 0 W/m 8,4 km/h (2 Bft) 98,96 %
11.04.2019 23:00 4,8 C 3,6 C 3,0 C 63 % 1021,8 hPa 0,0 l/m 0,00 h 0,00 h 0 W/m 5,9 km/h (2 Bft) 96,75 %
12.04.2019 00:00 4,4 C 3,8 C 3,1 C 65 % 1022,0 hPa 0,0 l/m 0,00 h 0,00 h 0 W/m 5,3 km/h (1 Bft) 96,12 %
12.04.2019 01:00 4,6 C 3,9 C 3,3 C 66 % 1022,1 hPa 0,0 l/m 0,00 h 0,00 h 0 W/m 7,2 km/h (2 Bft) 98,65 %
12.04.2019 02:00 4,7 C 4,1 C 3,9 C 68 % 1022,4 hPa 0,0 l/m 0,00 h 0,00 h 0 W/m 8,0 km/h (2 Bft) 96,79 %
12.04.2019 03:00 4,8 C 4,4 C 3,9 C 68 % 1022,3 hPa 0,0 l/m 0,00 h 0,00 h 0 W/m 10,2 km/h (2 Bft) 98,29 %
12.04.2019 04:00 4,8 C 4,2 C 3,9 C 67 % 1022,2 hPa 0,0 l/m 0,00 h 0,00 h 0 W/m 11,4 km/h (2 Bft) 96,94 %
12.04.2019 05:00 4,7 C 3,9 C 3,5 C 65 % 1022,3 hPa 0,0 l/m 0,00 h 0,00 h 0 W/m 9,1 km/h (2 Bft) 96,75 %
12.04.2019 06:00 4,4 C 3,9 C 3,3 C 66 % 1022,3 hPa 0,0 l/m 0,00 h 0,00 h 4 W/m 6,1 km/h (2 Bft) 99,43 %
12.04.2019 07:00 4,2 C 4,0 C 3,4 C 67 % 1022,6 hPa 0,0 l/m 0,00 h 0,00 h 22 W/m 6,6 km/h (2 Bft) 95,73 %
12.04.2019 08:00 4,7 C 5,1 C 4,7 C 67 % 1022,8 hPa 0,0 l/m 0,00 h 0,00 h 91 W/m 8,9 km/h (2 Bft) 93,38 %
12.04.2019 09:00 5,9 C 7,6 C 7,2 C 61 % 1022,7 hPa 0,0 l/m 0,30 h 0,00 h 198 W/m 12,5 km/h (3 Bft) 97,66 %
12.04.2019 10:00 6,8 C 7,9 C 7,5 C 55 % 1022,8 hPa 0,0 l/m 0,07 h 0,00 h 196 W/m 13,2 km/h (3 Bft) 96,24 %
12.04.2019 11:00 6,9 C 8,6 C 8,4 C 56 % 1022,8 hPa 0,0 l/m 0,20 h 0,00 h 287 W/m 11,8 km/h (2 Bft) 97,51 %
12.04.2019 12:00 7,6 C 8,9 C 8,6 C 58 % 1022,8 hPa 0,0 l/m 0,37 h 0,10 h 322 W/m 12,5 km/h (3 Bft) 98,41 %
12.04.2019 13:00 6,0 C 5,8 C 5,6 C 68 % 1022,8 hPa 0,0 l/m 0,00 h 0,33 h 183 W/m 12,6 km/h (3 Bft) 95,50 %
12.04.2019 14:00 5,9 C 6,8 C 6,8 C 67 % 1022,7 hPa 0,0 l/m 0,00 h 0,00 h 210 W/m 12,4 km/h (3 Bft) 99,00 %
12.04.2019 15:00 7,9 C 11,5 C 9,7 C 62 % 1022,4 hPa 0,0 l/m 0,83 h 0,00 h 526 W/m 14,1 km/h (3 Bft) 90,05 %
12.04.2019 16:00 7,4 C 6,8 C 7,0 C 61 % 1022,3 hPa 0,0 l/m 0,00 h 0,00 h 117 W/m 13,6 km/h (3 Bft) 96,80 %
12.04.2019 17:00 6,5 C 6,8 C 6,7 C 63 % 1022,4 hPa 0,0 l/m 0,00 h 0,00 h 136 W/m 13,0 km/h (3 Bft) 99,29 %
12.04.2019 18:00 6,3 C 6,2 C 5,9 C 61 % 1022,4 hPa 0,0 l/m 0,30 h 0,00 h 122 W/m 13,3 km/h (3 Bft) 94,13 %
12.04.2019 19:00 5,8 C 5,1 C 4,8 C 64 % 1022,4 hPa 0,0 l/m 0,00 h 0,00 h 43 W/m 10,5 km/h (2 Bft) 97,66 %
12.04.2019 20:00 4,9 C 4,0 C 3,6 C 69 % 1022,7 hPa 0,0 l/m 0,00 h 0,00 h 8 W/m 8,7 km/h (2 Bft) 93,32 %
12.04.2019 21:00 4,4 C 3,5 C 3,1 C 72 % 1022,9 hPa 0,0 l/m 0,00 h 0,00 h 0 W/m 7,4 km/h (2 Bft) 97,51 %
12.04.2019 22:00 4,0 C 3,3 C 2,9 C 73 % 1023,0 hPa 0,0 l/m 0,00 h 0,00 h 0 W/m 8,2 km/h (2 Bft) 95,11 %
12.04.2019 23:00 3,8 C 3,2 C 2,8 C 74 % 1023,0 hPa 0,0 l/m 0,00 h 0,00 h 0 W/m 10,5 km/h (2 Bft) 97,59 %
13.04.2019 00:00 3,4 C 2,3 C 1,9 C 75 % 1023,1 hPa 0,0 l/m 0,00 h 0,00 h 0 W/m 7,8 km/h (2 Bft) 93,38 %
13.04.2019 01:00 2,7 C 2,0 C 1,7 C 80 % 1023,0 hPa 0,0 l/m 0,00 h 0,00 h 0 W/m 8,1 km/h (2 Bft) 96,79 %
13.04.2019 02:00 2,7 C 2,1 C 1,7 C 83 % 1022,9 hPa 0,0 l/m 0,00 h 0,00 h 0 W/m 6,5 km/h (2 Bft) 98,29 %
13.04.2019 03:00 2,4 C 1,3 C 0,8 C 83 % 1022,7 hPa 0,0 l/m 0,00 h 0,00 h 0 W/m 3,5 km/h (1 Bft) 96,09 %
13.04.2019 04:00 1,5 C 0,2 C -0,4 C 85 % 1022,5 hPa 0,0 l/m 0,00 h 0,00 h 0 W/m 2,7 km/h (1 Bft) 97,44 %
13.04.2019 05:00 0,8 C -0,2 C -0,6 C 87 % 1022,5 hPa 0,0 l/m 0,00 h 0,00 h 0 W/m 2,1 km/h (1 Bft) 98,50 %
13.04.2019 06:00 0,3 C -1,0 C -1,6 C 88 % 1022,6 hPa 0,0 l/m 0,00 h 0,00 h 5 W/m 0,4 km/h (0 Bft) 99,02 %
13.04.2019 07:00 -0,3 C -0,8 C -1,3 C 89 % 1022,8 hPa 0,0 l/m 0,00 h 0,00 h 24 W/m 2,7 km/h (1 Bft) 94,19 %
13.04.2019 08:00 0,2 C 0,8 C 0,2 C 91 % 1023,0 hPa 0,0 l/m 0,00 h 0,00 h 55 W/m 10,3 km/h (2 Bft) 97,07 %
13.04.2019 09:00 2,5 C 8,1 C 4,1 C 87 % 1022,9 hPa 0,0 l/m 0,00 h 0,00 h 87 W/m 13,3 km/h (3 Bft) 96,50 %
13.04.2019 10:00 5,5 C 10,6 C 9,7 C 75 % 1022,7 hPa 0,0 l/m 0,57 h 0,00 h 424 W/m 14,3 km/h (3 Bft) 94,53 %
13.04.2019 11:00 7,7 C 12,1 C 10,9 C 67 % 1022,4 hPa 0,0 l/m 0,73 h 0,00 h 574 W/m 14,7 km/h (3 Bft) 96,86 %
13.04.2019 12:00 6,7 C 8,4 C 7,1 C 66 % 1022,1 hPa 0,0 l/m 0,13 h 0,00 h 292 W/m 15,1 km/h (3 Bft) 97,11 %
13.04.2019 13:00 7,1 C 9,8 C 8,7 C 67 % 1021,9 hPa 0,0 l/m 0,50 h 0,07 h 473 W/m 17,6 km/h (3 Bft) 98,29 %
13.04.2019 14:00 7,9 C 13,2 C 12,3 C 63 % 1021,6 hPa 0,0 l/m 0,83 h 0,00 h 561 W/m 16,7 km/h (3 Bft) 97,64 %
13.04.2019 15:00 9,7 C 12,8 C 9,9 C 54 % 1021,2 hPa 0,0 l/m 0,57 h 0,00 h 514 W/m 20,3 km/h (4 Bft) 96,28 %
13.04.2019 16:00 8,3 C 11,4 C 10,4 C 61 % 1021,1 hPa 0,0 l/m 0,93 h 0,00 h 548 W/m 17,7 km/h (3 Bft) 96,89 %
13.04.2019 17:00 9,4 C 11,7 C 9,9 C 56 % 1020,7 hPa 0,0 l/m 0,97 h 0,00 h 459 W/m 19,2 km/h (3 Bft) 97,30 %
13.04.2019 18:00 7,6 C 7,2 C 6,7 C 59 % 1020,7 hPa 0,0 l/m 0,70 h 0,00 h 192 W/m 16,7 km/h (3 Bft) 98,58 %
13.04.2019 19:00 5,4 C 3,9 C 4,0 C 73 % 1020,9 hPa 0,0 l/m 0,00 h 0,00 h 26 W/m 13,2 km/h (3 Bft) 96,79 %
13.04.2019 20:00 3,4 C 1,6 C 1,7 C 81 % 1021,1 hPa 0,0 l/m 0,00 h 0,00 h 9 W/m 5,4 km/h (1 Bft) 95,52 %
13.04.2019 21:00 2,3 C 0,9 C 0,8 C 84 % 1021,5 hPa 0,0 l/m 0,00 h 0,00 h 0 W/m 0,3 km/h (0 Bft) 95,08 %
13.04.2019 22:00 2,3 C 2,4 C 2,1 C 87 % 1021,5 hPa 0,0 l/m 0,00 h 0,07 h 0 W/m 3,8 km/h (1 Bft) 97,79 %
13.04.2019 23:00 2,9 C 2,1 C 1,9 C 87 % 1021,2 hPa 0,0 l/m 0,00 h 0,00 h 0 W/m 5,4 km/h (1 Bft) 99,43 %
14.04.2019 00:00 2,4 C 1,6 C 1,4 C 88 % 1021,3 hPa 0,0 l/m 0,00 h 0,00 h 0 W/m 1,4 km/h (1 Bft) 96,10 %
14.04.2019 01:00 2,6 C 2,2 C 1,8 C 90 % 1021,3 hPa 0,0 l/m 0,00 h 0,00 h 0 W/m 6,4 km/h (2 Bft) 96,01 %
14.04.2019 02:00 2,6 C 1,8 C 1,4 C 90 % 1020,9 hPa 0,0 l/m 0,00 h 0,20 h 0 W/m 3,4 km/h (1 Bft) 97,72 %
14.04.2019 03:00 2,1 C 1,2 C 1,1 C 91 % 1021,0 hPa 0,0 l/m 0,00 h 0,00 h 0 W/m 5,2 km/h (1 Bft) 97,51 %
14.04.2019 04:00 1,6 C 0,9 C 0,6 C 91 % 1021,1 hPa 0,0 l/m 0,00 h 0,00 h 0 W/m 4,5 km/h (1 Bft) 97,83 %
14.04.2019 05:00 1,5 C 0,9 C 0,6 C 91 % 1021,0 hPa 0,0 l/m 0,00 h 0,00 h 0 W/m 4,8 km/h (1 Bft) 96,80 %
14.04.2019 06:00 1,5 C 0,9 C 0,6 C 92 % 1021,2 hPa 0,0 l/m 0,00 h 0,00 h 5 W/m 2,1 km/h (1 Bft) 94,88 %
14.04.2019 07:00 2,1 C 2,1 C 1,7 C 93 % 1021,5 hPa 0,0 l/m 0,00 h 0,00 h 27 W/m 6,9 km/h (2 Bft) 99,22 %
14.04.2019 08:00 2,9 C 3,5 C 3,0 C 92 % 1021,7 hPa 0,0 l/m 0,00 h 0,00 h 98 W/m 9,2 km/h (2 Bft) 98,01 %
14.04.2019 09:00 4,2 C 7,3 C 6,0 C 88 % 1022,0 hPa 0,0 l/m 0,00 h 0,00 h 159 W/m 13,5 km/h (3 Bft) 94,80 %
14.04.2019 10:00 6,4 C 11,6 C 11,1 C 79 % 1022,1 hPa 0,0 l/m 0,90 h 0,00 h 443 W/m 15,1 km/h (3 Bft) 99,64 %
14.04.2019 11:00 8,3 C 13,9 C 12,0 C 70 % 1022,3 hPa 0,0 l/m 1,00 h 0,00 h 617 W/m 16,4 km/h (3 Bft) 97,77 %
14.04.2019 12:00 9,9 C 16,1 C 11,4 C 62 % 1022,2 hPa 0,0 l/m 1,00 h 0,00 h 718 W/m 19,1 km/h (3 Bft) 97,15 %
14.04.2019 13:00 11,4 C 17,2 C 16,3 C 57 % 1022,3 hPa 0,0 l/m 1,00 h 0,00 h 770 W/m 17,7 km/h (3 Bft) 99,30 %
14.04.2019 14:00 12,3 C 17,6 C 18,3 C 53 % 1022,3 hPa 0,0 l/m 1,00 h 0,00 h 760 W/m 18,2 km/h (3 Bft) 97,16 %
14.04.2019 15:00 12,7 C 17,0 C 13,8 C 52 % 1022,1 hPa 0,0 l/m 1,00 h 0,00 h 686 W/m 18,7 km/h (3 Bft) 95,92 %
14.04.2019 16:00 12,5 C 14,7 C 14,1 C 52 % 1021,7 hPa 0,0 l/m 0,80 h 0,00 h 504 W/m 18,1 km/h (3 Bft) 98,22 %
14.04.2019 17:00 11,8 C 12,8 C 12,1 C 53 % 1021,7 hPa 0,0 l/m 0,90 h 0,00 h 390 W/m 17,9 km/h (3 Bft) 98,79 %
14.04.2019 18:00 10,6 C 10,3 C 9,5 C 57 % 1022,3 hPa 0,0 l/m 0,43 h 0,00 h 162 W/m 15,8 km/h (3 Bft) 96,22 %
14.04.2019 19:00 9,4 C 8,6 C 8,3 C 61 % 1022,8 hPa 0,0 l/m 0,00 h 0,00 h 41 W/m 14,2 km/h (3 Bft) 97,86 %
14.04.2019 20:00 8,3 C 7,1 C 7,0 C 65 % 1023,1 hPa 0,0 l/m 0,00 h 0,00 h 8 W/m 11,5 km/h (2 Bft) 97,22 %
14.04.2019 21:00 7,7 C 7,1 C 6,7 C 69 % 1023,7 hPa 0,0 l/m 0,00 h 0,00 h 0 W/m 10,4 km/h (2 Bft) 98,79 %
14.04.2019 22:00 7,5 C 6,7 C 6,4 C 71 % 1024,2 hPa 0,0 l/m 0,00 h 0,00 h 0 W/m 10,3 km/h (2 Bft) 94,95 %
14.04.2019 23:00 6,8 C 5,7 C 5,2 C 74 % 1024,3 hPa 0,0 l/m 0,00 h 0,00 h 0 W/m 11,0 km/h (2 Bft) 97,93 %
Min-Datum _ 13.04.19 13.04.19 13.04.19 11.04.19 08.04.19 - - - - 08.04.19 13.04.19
_ Min-Zeit 07:20 06:44 06:44 14:58 00:00 - - - - 00:00 00:02
Minimum _ -0,3 C -1,7 C -2,2 C 43 % 1004,8 hPa - - - - 0,0 km/h (0 Bft) 22,22 %
Max-Datum _ 08.04.19 08.04.19 08.04.19 08.04.19 14.04.19 08.04.19 10.04.19 12.04.19 13.04.19 14.04.19 08.04.19
_ Max-Zeit 14:48 13:36 14:04 09:56 22:34 00:00 12:08 12:36 13:16 16:00 00:32
Maximum _ 20,5 C 28,9 C 27,2 C 98 % 1024,5 hPa 0,0 l/m 0,07 h 0,03 h 1006 W/m 41,8 km/h
NW (6 Bft)
100,00 %
Durchschnitt _ 8,3 C 9,1 C 8,2 C 71 % 1016,5 hPa #0,0 l/m #42:57 h #46 min. 292 W/m 10,5 km/h (2 Bft) 96,96 %
© 2019 W. Hausmann